Impacts TAF Board INFO
FOR SITUATIONAL AWARENESS. NOT TO BE USED FOR FLIGHT PLANNING PURPOSES.
IDs:

KEWR - Newark Intl, NJ, US

Issued at 1127 UTC 19 Jan 2018
Updated at 1323 UTC 19 Jan 2018
Potential Impact None Slight Moderate High
Time1251Z 19/14Z 19/15Z 19/16Z 19/17Z 19/18Z 19/19Z 19/20Z 19/21Z 19/22Z 19/23Z 20/00Z 20/01Z 20/02Z>>
Type OBS PRVL PRVL PRVL PRVL PRVL PRVL PRVL PRVL PRVL PRVL PRVL PRVL PRVL
VIS 10 >6 >6 >6 >6 >6 >6 >6 >6 >6 >6 >6 >6 >6
CIG 250 -- -- -- -- -- -- -- -- -- -- -- -- --
Cover BKN SKC FEW FEW FEW FEW FEW FEW FEW FEW FEW FEW FEW FEW
FltCat VFR VFR VFR VFR VFR VFR VFR VFR VFR VFR VFR VFR VFR VFR
WX -- -- -- -- -- -- -- -- -- -- -- -- -- --
WDir 220 270 260 260 260 260 260 260 260 230 230 230 230 230
WSpd 5 6 12 12 12 12 12 12 12 7 7 7 7 7
WGst -- -- -- -- -- -- -- -- -- -- -- -- -- --

Raw TAF
KEWR 191127Z 1912/2018 27006KT P6SM SKC
  FM191500 26012KT P6SM FEW200
  FM192200 23007KT P6SM FEW150
  FM201500 24012G22KT P6SM FEW250


Raw METAR
KEWR 191251Z 22005KT 10SM BKN250 M04/M10 A3007 RMK AO2 SLP183 T10441100
KEWR 191151Z 25007KT 10SM SCT250 M04/M11 A3007 RMK AO2 SLP182 T10391106 11039 21067 56000
KEWR 191051Z 25007KT 10SM SCT250 M05/M11 A3007 RMK AO2 SLP182 T10501106

METAR Board
Radar Display
Forecast Discussion

FOR SITUATIONAL AWARENESS. NOT TO BE USED FOR FLIGHT PLANNING PURPOSES.